Sondheimer, Louisiana
Current Conditions -  °F | °C
As of 8:53 AM on Wednesday 26 Nov 2014 (Local Time) from KTVR Reporting Station
Clear Clear  
Wind Chill: 42°   Ceiling: Unl
Heat Index: 46°   Visibility: 10mi
Dew Point: 36°   Wind: 7mph
Humidity: 68%   Direction: 180°S
Pressure: 30.2"   Gusts: NA
Location:  32.55°N, 91.18°W
Report Text: KTVR 261453Z AUTO 18006KT 10SM CLR 08/02 A3020 RMK AO2 SLP235 T00780022 50002
Loading
Personal Weather Stations






























Interactive Weather Map New forecast layout! Learn more

10-Day Weather Forecast

Advertisements
Track Severe Weather on mobile